Time;durP1;ratioP1;P1;durP2;ratioP2;P2;SDS_P1;SDS_P2;PMS_P1;PMS_P2;Temp;Humidity;BMP_temperature;BMP_pressure;BME280_temperature;BME280_humidity;BME280_pressure;Samples;Min_cycle;Max_cycle;Signal;HPM_P1;HPM_P2
2021/04/17 00:02:27;;;;;;;8.10;6.67;;;;;;;;;;5073941;28;20206;-71
2021/04/17 00:05:12;;;;;;;6.63;5.90;;;;;;;;;;5073658;28;20744;-70
2021/04/17 00:07:56;;;;;;;7.97;7.13;;;;;;;;;;5073532;28;20209;-71
2021/04/17 00:10:41;;;;;;;10.63;6.73;;;;;;;;;;5073497;28;20690;-70
2021/04/17 00:13:26;;;;;;;9.33;6.50;;;;;;;;;;5073793;28;20642;-71
2021/04/17 00:16:10;;;;;;;8.83;6.63;;;;;;;;;;5072953;28;20232;-70
2021/04/17 00:18:55;;;;;;;10.47;6.63;;;;;;;;;;5073324;28;20220;-71
2021/04/17 00:21:40;;;;;;;7.07;6.13;;;;;;;;;;5073476;28;20208;-71
2021/04/17 00:24:24;;;;;;;8.27;6.77;;;;;;;;;;5073408;28;20208;-70
2021/04/17 00:27:10;;;;;;;8.90;7.27;;;;;;;;;;5072718;28;20200;-70
2021/04/17 00:29:54;;;;;;;9.17;6.77;;;;;;;;;;5073345;28;20220;-71
2021/04/17 00:32:38;;;;;;;11.37;7.33;;;;;;;;;;5073262;28;20559;-71
2021/04/17 00:35:23;;;;;;;11.50;7.90;;;;;;;;;;5072403;28;20415;-71
2021/04/17 00:38:07;;;;;;;10.00;7.53;;;;;;;;;;5072282;28;20232;-71
2021/04/17 00:40:52;;;;;;;10.87;7.47;;;;;;;;;;5073297;28;20212;-71
2021/04/17 00:43:37;;;;;;;11.03;7.10;;;;;;;;;;5073104;28;20204;-71
2021/04/17 00:46:22;;;;;;;10.97;7.30;;;;;;;;;;5072521;28;20201;-70
2021/04/17 00:49:07;;;;;;;9.88;8.25;;;;;;;;;;5071813;28;20401;-70
2021/04/17 00:51:51;;;;;;;9.63;7.47;;;;;;;;;;5072835;28;20258;-71
2021/04/17 00:54:35;;;;;;;11.77;7.53;;;;;;;;;;5072831;28;20285;-71
2021/04/17 00:57:20;;;;;;;8.87;6.50;;;;;;;;;;5072095;28;20221;-71
2021/04/17 01:00:07;;;;;;;9.53;7.10;;;;;;;;;;5073272;28;20225;-71
2021/04/17 01:02:53;;;;;;;10.87;7.20;;;;;;;;;;5072939;28;20683;-71
2021/04/17 01:05:38;;;;;;;10.20;7.60;;;;;;;;;;5072744;28;20243;-71
2021/04/17 01:08:27;;;;;;;7.00;6.30;;;;;;;;;;5072520;28;20592;-71
2021/04/17 01:11:14;;;;;;;10.37;7.17;;;;;;;;;;5072423;28;20213;-70
2021/04/17 01:13:58;;;;;;;8.93;7.03;;;;;;;;;;5072411;28;20196;-70
2021/04/17 01:16:44;;;;;;;11.10;6.50;;;;;;;;;;5071865;28;20284;-71
2021/04/17 01:19:32;;;;;;;9.20;6.80;;;;;;;;;;5072277;28;20258;-70
2021/04/17 01:22:17;;;;;;;10.40;7.88;;;;;;;;;;5071908;28;20411;-70
2021/04/17 01:25:08;;;;;;;7.63;6.83;;;;;;;;;;5072150;28;20232;-70
2021/04/17 01:27:53;;;;;;;9.67;7.03;;;;;;;;;;5070764;28;20208;-71
2021/04/17 01:30:38;;;;;;;10.00;7.70;;;;;;;;;;5071750;28;20228;-70
2021/04/17 01:33:23;;;;;;;9.67;6.80;;;;;;;;;;5071964;28;20209;-71
2021/04/17 01:36:09;;;;;;;10.65;7.88;;;;;;;;;;5070733;28;20419;-70
2021/04/17 01:38:55;;;;;;;9.17;7.00;;;;;;;;;;5071880;28;20270;-70
2021/04/17 01:41:43;;;;;;;7.97;6.00;;;;;;;;;;5071798;28;20246;-70
2021/04/17 01:44:29;;;;;;;8.80;5.83;;;;;;;;;;5071953;28;20205;-70
2021/04/17 01:47:15;;;;;;;6.97;5.77;;;;;;;;;;5071287;28;20605;-70
2021/04/17 01:49:59;;;;;;;9.87;6.70;;;;;;;;;;5071636;28;20259;-71
2021/04/17 01:52:45;;;;;;;8.37;6.60;;;;;;;;;;5071725;28;20282;-71
2021/04/17 01:55:34;;;;;;;10.03;6.43;;;;;;;;;;5071836;28;20201;-70
2021/04/17 01:58:20;;;;;;;10.30;6.23;;;;;;;;;;5071487;28;20240;-70
2021/04/17 02:01:06;;;;;;;8.13;6.13;;;;;;;;;;5071851;28;20602;-70
2021/04/17 02:03:50;;;;;;;9.13;6.37;;;;;;;;;;5071700;28;20247;-70
2021/04/17 02:06:35;;;;;;;10.43;6.37;;;;;;;;;;5071106;28;20278;-70
2021/04/17 02:09:19;;;;;;;8.37;6.40;;;;;;;;;;5071483;28;20263;-70
2021/04/17 02:12:04;;;;;;;10.30;6.43;;;;;;;;;;5071248;28;20224;-70
2021/04/17 02:14:49;;;;;;;8.57;6.40;;;;;;;;;;5071428;28;20239;-70
2021/04/17 02:17:41;;;;;;;7.40;5.70;;;;;;;;;;5070815;28;20597;-71
2021/04/17 02:20:28;;;;;;;8.37;6.17;;;;;;;;;;5071115;28;20201;-70
2021/04/17 02:23:13;;;;;;;9.57;6.07;;;;;;;;;;5071566;28;20514;-70
2021/04/17 02:25:57;;;;;;;6.83;5.77;;;;;;;;;;5070596;28;20251;-71
2021/04/17 02:28:42;;;;;;;9.53;6.70;;;;;;;;;;5070967;28;20224;-70
2021/04/17 02:31:27;;;;;;;8.13;5.90;;;;;;;;;;5071073;28;20251;-70
2021/04/17 02:34:12;;;;;;;6.93;5.73;;;;;;;;;;5070808;28;20227;-70
2021/04/17 02:36:57;;;;;;;6.97;5.70;;;;;;;;;;5070460;28;20350;-70
2021/04/17 02:39:42;;;;;;;8.70;6.47;;;;;;;;;;5070057;28;20224;-70
2021/04/17 02:42:26;;;;;;;7.70;6.10;;;;;;;;;;5071125;28;20205;-71
2021/04/17 02:45:11;;;;;;;8.50;6.37;;;;;;;;;;5070981;28;20227;-70
2021/04/17 02:47:56;;;;;;;9.33;5.97;;;;;;;;;;5070297;28;20225;-70
2021/04/17 02:50:41;;;;;;;9.90;5.90;;;;;;;;;;5071178;28;20213;-70
2021/04/17 02:53:25;;;;;;;9.33;6.47;;;;;;;;;;5071079;28;20197;-70
2021/04/17 02:56:10;;;;;;;9.67;6.03;;;;;;;;;;5070091;28;20714;-70
2021/04/17 02:58:54;;;;;;;9.47;6.87;;;;;;;;;;5069794;28;20823;-70
2021/04/17 03:01:39;;;;;;;9.57;6.20;;;;;;;;;;5069994;28;20275;-70
2021/04/17 03:04:23;;;;;;;7.60;6.13;;;;;;;;;;5064567;28;20267;-70
2021/04/17 03:07:09;;;;;;;8.30;6.03;;;;;;;;;;5065924;28;20231;-70
2021/04/17 03:09:53;;;;;;;9.90;6.33;;;;;;;;;;5070553;28;20358;-71
2021/04/17 03:12:38;;;;;;;8.90;7.53;;;;;;;;;;5068815;28;20862;-70
2021/04/17 03:15:22;;;;;;;7.63;6.63;;;;;;;;;;5070579;28;20251;-70
2021/04/17 03:18:07;;;;;;;8.90;6.47;;;;;;;;;;5069632;28;20240;-70
2021/04/17 03:20:51;;;;;;;8.33;6.60;;;;;;;;;;5070590;28;20201;-70
2021/04/17 03:23:37;;;;;;;10.13;6.10;;;;;;;;;;5070553;28;20232;-70
2021/04/17 03:26:21;;;;;;;8.80;5.70;;;;;;;;;;5069969;28;20220;-70
2021/04/17 03:29:06;;;;;;;15.13;6.30;;;;;;;;;;5070151;28;20225;-70
2021/04/17 03:31:50;;;;;;;8.90;6.30;;;;;;;;;;5070458;28;20248;-70
2021/04/17 03:34:35;;;;;;;9.23;6.60;;;;;;;;;;5050257;28;20205;-70
2021/04/17 03:37:19;;;;;;;9.77;6.70;;;;;;;;;;5049681;28;20225;-70
2021/04/17 03:40:06;;;;;;;9.47;6.73;;;;;;;;;;5050037;28;20387;-70
2021/04/17 03:42:51;;;;;;;9.77;6.10;;;;;;;;;;5050539;28;20210;-71
2021/04/17 03:45:35;;;;;;;10.80;6.90;;;;;;;;;;5061787;28;20239;-70
2021/04/17 03:48:20;;;;;;;10.90;6.83;;;;;;;;;;5065792;28;20652;-70
2021/04/17 03:51:04;;;;;;;11.23;7.07;;;;;;;;;;5073457;28;20201;-70
2021/04/17 03:53:49;;;;;;;11.53;6.47;;;;;;;;;;5059804;28;20205;-70
2021/04/17 03:56:34;;;;;;;10.60;6.07;;;;;;;;;;5053480;28;20734;-70
2021/04/17 03:59:18;;;;;;;10.47;6.43;;;;;;;;;;5069989;28;20765;-70
2021/04/17 04:02:03;;;;;;;12.75;6.30;;;;;;;;;;5061776;28;20415;-70
2021/04/17 04:04:47;;;;;;;10.87;6.30;;;;;;;;;;5073256;28;20201;-71
2021/04/17 04:07:32;;;;;;;8.33;6.10;;;;;;;;;;5073106;28;20204;-70
2021/04/17 04:10:17;;;;;;;7.47;5.63;;;;;;;;;;5073498;28;20220;-70
2021/04/17 04:13:02;;;;;;;8.47;6.33;;;;;;;;;;5073677;28;20196;-70
2021/04/17 04:15:46;;;;;;;11.10;5.80;;;;;;;;;;5063862;28;20260;-70
2021/04/17 04:18:31;;;;;;;7.90;5.87;;;;;;;;;;5070277;28;20236;-70
2021/04/17 04:21:15;;;;;;;8.80;5.67;;;;;;;;;;5073357;28;20280;-70
2021/04/17 04:24:00;;;;;;;9.40;5.80;;;;;;;;;;5072668;28;20629;-70
2021/04/17 04:26:44;;;;;;;10.93;6.17;;;;;;;;;;5072816;28;20254;-70
2021/04/17 04:29:30;;;;;;;8.87;6.37;;;;;;;;;;5072902;28;20634;-70
2021/04/17 04:32:14;;;;;;;12.00;6.27;;;;;;;;;;5073054;28;20282;-70
2021/04/17 04:34:59;;;;;;;7.97;5.60;;;;;;;;;;5072465;28;20201;-71
2021/04/17 04:37:43;;;;;;;9.20;6.30;;;;;;;;;;5072634;28;20248;-71
2021/04/17 04:40:27;;;;;;;10.00;5.80;;;;;;;;;;5072885;28;20706;-70
2021/04/17 04:43:12;;;;;;;8.13;5.90;;;;;;;;;;5073371;28;20270;-70
2021/04/17 04:45:57;;;;;;;9.17;5.60;;;;;;;;;;5066604;28;20285;-71
2021/04/17 04:48:42;;;;;;;7.90;5.87;;;;;;;;;;5071492;28;20216;-70
2021/04/17 04:51:27;;;;;;;10.63;6.57;;;;;;;;;;5072802;28;20208;-70
2021/04/17 04:54:11;;;;;;;8.95;7.60;;;;;;;;;;5070695;28;21204;-70
2021/04/17 04:56:58;;;;;;;10.47;7.17;;;;;;;;;;5052094;28;20241;-70
2021/04/17 04:59:43;;;;;;;12.80;6.70;;;;;;;;;;5064677;28;20288;-70
2021/04/17 05:02:29;;;;;;;11.67;7.03;;;;;;;;;;5060799;28;20203;-71
2021/04/17 05:05:13;;;;;;;9.50;6.80;;;;;;;;;;5072283;28;20558;-71
2021/04/17 05:07:57;;;;;;;10.70;7.53;;;;;;;;;;5071917;28;20223;-71
2021/04/17 05:10:42;;;;;;;11.70;7.70;;;;;;;;;;5070676;28;20208;-70
2021/04/17 05:13:27;;;;;;;11.17;7.57;;;;;;;;;;5062502;28;20201;-70
2021/04/17 05:16:13;;;;;;;9.50;7.73;;;;;;;;;;5064520;28;20196;-70
2021/04/17 05:18:58;;;;;;;8.93;7.10;;;;;;;;;;5071413;28;20231;-70
2021/04/17 05:21:43;;;;;;;10.80;8.30;;;;;;;;;;5072444;28;20565;-70
2021/04/17 05:24:27;;;;;;;11.83;8.43;;;;;;;;;;5071934;28;20294;-71
2021/04/17 05:27:12;;;;;;;9.82;7.60;;;;;;;;;;5071458;28;20766;-71
2021/04/17 05:29:56;;;;;;;11.77;7.70;;;;;;;;;;5071642;28;20208;-71
2021/04/17 05:32:41;;;;;;;11.50;7.20;;;;;;;;;;5071762;28;20271;-71
2021/04/17 05:35:26;;;;;;;7.50;6.77;;;;;;;;;;5052208;28;20221;-70
2021/04/17 05:38:11;;;;;;;12.07;6.83;;;;;;;;;;5054776;28;20643;-71
2021/04/17 05:40:55;;;;;;;10.98;7.60;;;;;;;;;;5071510;28;20489;-71
2021/04/17 05:43:40;;;;;;;11.57;7.03;;;;;;;;;;5070090;28;20225;-71
2021/04/17 05:46:24;;;;;;;10.43;6.23;;;;;;;;;;5058420;28;20252;-71
2021/04/17 05:49:09;;;;;;;8.10;5.93;;;;;;;;;;5064760;28;20271;-71
2021/04/17 05:51:54;;;;;;;8.97;6.37;;;;;;;;;;5071763;28;20232;-72
2021/04/17 05:54:39;;;;;;;8.67;5.93;;;;;;;;;;5071222;28;20568;-71
2021/04/17 05:57:23;;;;;;;9.60;6.20;;;;;;;;;;5070493;28;20225;-71
2021/04/17 06:00:08;;;;;;;8.03;5.30;;;;;;;;;;5070721;28;20706;-71
2021/04/17 06:02:53;;;;;;;7.70;5.43;;;;;;;;;;5070969;28;20201;-71
2021/04/17 06:05:37;;;;;;;7.50;5.53;;;;;;;;;;5070984;28;20860;-71
2021/04/17 06:08:23;;;;;;;8.37;5.30;;;;;;;;;;5070304;28;20265;-72
2021/04/17 06:11:07;;;;;;;6.23;5.20;;;;;;;;;;5070880;28;20211;-71
2021/04/17 06:13:52;;;;;;;10.70;5.57;;;;;;;;;;5070556;28;20225;-71
2021/04/17 06:16:36;;;;;;;6.50;5.27;;;;;;;;;;5070388;28;20606;-71
2021/04/17 06:19:21;;;;;;;7.37;4.93;;;;;;;;;;5070816;28;20282;-71
2021/04/17 06:22:05;;;;;;;7.97;5.10;;;;;;;;;;5070589;28;20211;-73
2021/04/17 06:24:51;;;;;;;8.93;4.90;;;;;;;;;;5051030;28;20647;-71
2021/04/17 06:27:35;;;;;;;6.93;5.17;;;;;;;;;;5063835;28;20228;-71
2021/04/17 06:30:20;;;;;;;6.77;4.63;;;;;;;;;;5070859;28;20454;-71
2021/04/17 06:33:05;;;;;;;6.20;4.73;;;;;;;;;;5070911;28;20463;-71
2021/04/17 06:35:49;;;;;;;8.57;4.77;;;;;;;;;;5070742;28;20211;-71
2021/04/17 06:38:34;;;;;;;6.67;5.03;;;;;;;;;;5070247;28;20290;-71
2021/04/17 06:41:20;;;;;;;6.07;4.70;;;;;;;;;;5069986;28;20200;-70
2021/04/17 06:44:05;;;;;;;6.53;4.47;;;;;;;;;;5052312;28;20205;-71
2021/04/17 06:46:51;;;;;;;6.53;4.60;;;;;;;;;;5057550;28;20967;-71
2021/04/17 06:49:36;;;;;;;9.30;5.17;;;;;;;;;;5071038;28;20227;-71
2021/04/17 06:52:21;;;;;;;7.07;4.57;;;;;;;;;;5070726;28;20204;-71
2021/04/17 06:55:07;;;;;;;6.33;4.57;;;;;;;;;;5070767;28;20202;-72
2021/04/17 06:57:52;;;;;;;6.17;4.83;;;;;;;;;;5069218;28;20234;-72
2021/04/17 07:00:37;;;;;;;5.40;4.57;;;;;;;;;;5070245;28;20220;-72
2021/04/17 07:03:21;;;;;;;6.73;3.97;;;;;;;;;;5057700;28;20722;-71
2021/04/17 07:06:06;;;;;;;5.95;4.35;;;;;;;;;;5069808;28;20471;-72
2021/04/17 07:08:50;;;;;;;7.47;4.10;;;;;;;;;;5055481;28;20237;-71
2021/04/17 07:11:35;;;;;;;4.43;3.87;;;;;;;;;;5050679;28;20213;-71
2021/04/17 07:14:20;;;;;;;5.27;3.47;;;;;;;;;;5050866;28;20205;-72
2021/04/17 07:17:05;;;;;;;5.33;3.60;;;;;;;;;;5050106;28;20255;-71
2021/04/17 07:19:50;;;;;;;4.38;3.97;;;;;;;;;;5055298;28;20406;-71
2021/04/17 07:22:36;;;;;;;6.57;3.93;;;;;;;;;;5070573;28;20232;-72
2021/04/17 07:25:20;;;;;;;5.77;3.90;;;;;;;;;;5072809;28;20204;-72
2021/04/17 07:28:09;;;;;;;5.20;3.63;;;;;;;;;;5073897;28;20765;-72
2021/04/17 07:30:55;;;;;;;5.23;3.57;;;;;;;;;;5074567;28;20240;-72
2021/04/17 07:33:39;;;;;;;4.93;3.63;;;;;;;;;;5074411;28;20250;-72
2021/04/17 07:36:43;;;;;;;6.87;3.20;;;;;;;;;;5074020;28;20668;-71
2021/04/17 07:39:29;;;;;;;5.93;3.47;;;;;;;;;;5074111;28;20201;-72
2021/04/17 07:42:14;;;;;;;4.80;3.50;;;;;;;;;;5074211;28;20239;-71
2021/04/17 07:44:59;;;;;;;4.27;3.33;;;;;;;;;;5073713;28;20618;-71
2021/04/17 07:47:44;;;;;;;6.17;3.40;;;;;;;;;;5073519;28;20690;-71
2021/04/17 07:50:32;;;;;;;3.73;3.07;;;;;;;;;;5073936;28;20231;-72
2021/04/17 07:53:30;;;;;;;6.90;3.88;;;;;;;;;;5068089;28;20416;-70
2021/04/17 07:56:39;;;;;;;4.77;3.60;;;;;;;;;;5071901;28;20207;-68
2021/04/17 07:59:24;;;;;;;5.13;3.03;;;;;;;;;;5061163;28;20225;-71
2021/04/17 08:02:11;;;;;;;4.23;2.60;;;;;;;;;;5073105;28;20687;-70
2021/04/17 08:04:58;;;;;;;5.07;3.03;;;;;;;;;;5072660;28;20701;-72
2021/04/17 08:07:43;;;;;;;4.20;2.80;;;;;;;;;;5072098;28;20392;-71
2021/04/17 08:10:27;;;;;;;4.27;2.47;;;;;;;;;;5072654;28;20257;-71
2021/04/17 08:13:13;;;;;;;3.50;2.43;;;;;;;;;;5065921;28;20276;-71
2021/04/17 08:15:58;;;;;;;2.77;2.27;;;;;;;;;;5070512;28;20207;-70
2021/04/17 08:18:43;;;;;;;2.87;2.27;;;;;;;;;;5072508;28;20233;-71
2021/04/17 08:21:29;;;;;;;4.40;2.60;;;;;;;;;;5073094;28;20258;-69
2021/04/17 08:24:15;;;;;;;4.03;2.70;;;;;;;;;;5073164;28;20271;-68
2021/04/17 08:27:00;;;;;;;3.60;2.40;;;;;;;;;;5072140;28;20575;-69
2021/04/17 08:29:46;;;;;;;4.30;2.70;;;;;;;;;;5072195;28;20215;-69
2021/04/17 08:32:31;;;;;;;6.60;3.10;;;;;;;;;;5071115;28;20211;-71
2021/04/17 08:35:16;;;;;;;3.40;2.50;;;;;;;;;;5072091;28;20297;-72
2021/04/17 08:38:03;;;;;;;5.87;2.53;;;;;;;;;;5071965;28;20311;-73
2021/04/17 08:40:48;;;;;;;2.37;2.17;;;;;;;;;;5072211;28;20219;-72
2021/04/17 08:43:35;;;;;;;4.03;2.50;;;;;;;;;;5072725;28;20204;-71
2021/04/17 08:46:19;;;;;;;4.07;2.20;;;;;;;;;;5067801;28;20230;-71
2021/04/17 08:49:04;;;;;;;3.67;2.47;;;;;;;;;;5068582;28;20578;-71
2021/04/17 08:51:48;;;;;;;3.30;1.90;;;;;;;;;;5072474;28;20201;-70
2021/04/17 08:54:34;;;;;;;3.88;2.40;;;;;;;;;;5072262;28;20391;-71
2021/04/17 08:57:18;;;;;;;4.50;2.30;;;;;;;;;;5051977;28;20252;-71
2021/04/17 09:00:05;;;;;;;3.33;2.23;;;;;;;;;;5052545;28;20668;-70
2021/04/17 09:02:50;;;;;;;4.77;2.13;;;;;;;;;;5052470;28;20209;-70
2021/04/17 09:05:45;;;;;;;4.80;2.50;;;;;;;;;;5060084;28;20305;-72
2021/04/17 09:08:29;;;;;;;3.57;2.03;;;;;;;;;;5062596;28;20234;-71
2021/04/17 09:11:34;;;;;;;4.30;2.40;;;;;;;;;;5052974;28;20564;-72
2021/04/17 09:14:37;;;;;;;2.47;2.27;;;;;;;;;;5064845;28;20343;-73
2021/04/17 09:17:42;;;;;;;2.50;2.30;;;;;;;;;;5067040;28;20232;-72
2021/04/17 09:20:35;;;;;;;2.93;2.27;;;;;;;;;;5052760;28;20251;-73
2021/04/17 09:23:34;;;;;;;4.07;2.20;;;;;;;;;;5067656;28;20258;-68
2021/04/17 09:26:33;;;;;;;2.60;2.20;;;;;;;;;;5069484;28;20781;-68
2021/04/17 09:29:22;;;;;;;5.33;2.40;;;;;;;;;;5054107;28;20216;-74
2021/04/17 09:32:07;;;;;;;3.27;2.20;;;;;;;;;;5062099;28;20675;-76
2021/04/17 09:34:51;;;;;;;4.10;2.83;;;;;;;;;;5060725;28;20204;-77
2021/04/17 09:37:36;;;;;;;3.33;2.40;;;;;;;;;;5071238;28;20219;-76
2021/04/17 09:40:28;;;;;;;5.40;3.30;;;;;;;;;;5071522;28;20235;-77
2021/04/17 09:43:23;;;;;;;4.72;3.13;;;;;;;;;;5069726;28;20426;-75
2021/04/17 09:46:16;;;;;;;3.80;2.83;;;;;;;;;;5070618;28;20247;-72
2021/04/17 09:49:01;;;;;;;4.20;2.80;;;;;;;;;;5066172;28;20241;-72
2021/04/17 09:51:45;;;;;;;4.57;3.10;;;;;;;;;;5071314;28;20280;-72
2021/04/17 09:54:30;;;;;;;5.60;3.20;;;;;;;;;;5071103;28;20279;-73
2021/04/17 09:57:15;;;;;;;4.37;2.93;;;;;;;;;;5070437;28;20299;-76
2021/04/17 10:00:01;;;;;;;6.83;3.23;;;;;;;;;;5071188;28;20237;-74
2021/04/17 10:02:46;;;;;;;6.07;3.13;;;;;;;;;;5071735;28;20738;-73
2021/04/17 10:05:31;;;;;;;3.43;2.63;;;;;;;;;;5071371;28;20225;-75
2021/04/17 10:08:24;;;;;;;4.03;3.13;;;;;;;;;;5070989;28;21329;-73
2021/04/17 10:11:19;;;;;;;4.53;3.10;;;;;;;;;;5051198;28;20217;-74
2021/04/17 10:14:04;;;;;;;4.50;3.03;;;;;;;;;;5059833;28;20811;-71
2021/04/17 10:16:50;;;;;;;3.63;3.20;;;;;;;;;;5070513;28;20299;-73
2021/04/17 10:19:34;;;;;;;5.93;3.00;;;;;;;;;;5070586;28;20228;-70
2021/04/17 10:22:20;;;;;;;6.67;3.13;;;;;;;;;;5071178;28;20205;-71
2021/04/17 10:25:07;;;;;;;4.27;3.10;;;;;;;;;;5069996;28;20209;-68
2021/04/17 10:27:51;;;;;;;4.23;3.57;;;;;;;;;;5070481;28;20247;-67
2021/04/17 10:30:36;;;;;;;7.07;3.83;;;;;;;;;;5063331;28;20411;-71
2021/04/17 10:33:21;;;;;;;6.17;3.77;;;;;;;;;;5070694;28;20253;-70
2021/04/17 10:36:14;;;;;;;4.90;3.20;;;;;;;;;;5069744;28;20254;-70
2021/04/17 10:39:04;;;;;;;6.40;3.67;;;;;;;;;;5068705;28;20235;-70
2021/04/17 10:41:56;;;;;;;6.30;4.33;;;;;;;;;;5070813;28;20292;-70
2021/04/17 10:44:51;;;;;;;6.07;3.97;;;;;;;;;;5062709;28;20339;-70
2021/04/17 10:47:35;;;;;;;5.57;3.50;;;;;;;;;;5070088;28;20211;-70
2021/04/17 10:50:22;;;;;;;6.90;3.93;;;;;;;;;;5070398;28;20225;-68
2021/04/17 10:53:07;;;;;;;5.63;3.60;;;;;;;;;;5070658;28;20250;-69
2021/04/17 10:55:52;;;;;;;6.30;3.80;;;;;;;;;;5069642;28;20694;-70
2021/04/17 10:58:37;;;;;;;5.27;4.13;;;;;;;;;;5069382;28;20257;-68
2021/04/17 11:01:22;;;;;;;5.33;3.50;;;;;;;;;;5070167;28;20916;-69
2021/04/17 11:04:07;;;;;;;6.72;4.35;;;;;;;;;;5069635;28;20770;-70
2021/04/17 11:06:52;;;;;;;7.57;3.87;;;;;;;;;;5070021;28;20227;-72
2021/04/17 11:09:44;;;;;;;6.13;3.60;;;;;;;;;;5069853;28;20212;-71
2021/04/17 11:12:30;;;;;;;4.97;3.77;;;;;;;;;;5070316;28;20299;-70
2021/04/17 11:15:15;;;;;;;4.07;3.67;;;;;;;;;;5069944;28;20203;-69
2021/04/17 11:18:13;;;;;;;5.85;3.83;;;;;;;;;;5068995;28;20490;-71
2021/04/17 11:20:59;;;;;;;8.17;4.00;;;;;;;;;;5070486;28;20208;-69
2021/04/17 11:23:47;;;;;;;5.13;3.47;;;;;;;;;;5066204;28;20252;-71
2021/04/17 11:26:33;;;;;;;4.57;3.50;;;;;;;;;;5054548;28;20207;-71
2021/04/17 11:29:17;;;;;;;6.30;3.47;;;;;;;;;;5070199;28;20282;-71
2021/04/17 11:32:02;;;;;;;6.90;3.80;;;;;;;;;;5069219;28;20622;-71
2021/04/17 11:34:48;;;;;;;4.87;3.20;;;;;;;;;;5070052;28;20720;-71
2021/04/17 11:37:32;;;;;;;7.63;3.80;;;;;;;;;;5068020;28;20223;-71
2021/04/17 11:40:17;;;;;;;5.13;3.37;;;;;;;;;;5070364;28;20238;-71
2021/04/17 11:43:02;;;;;;;5.80;3.13;;;;;;;;;;5069770;28;20263;-73
2021/04/17 11:45:46;;;;;;;5.87;3.50;;;;;;;;;;5053186;28;20228;-71
2021/04/17 11:48:31;;;;;;;6.27;3.40;;;;;;;;;;5050149;28;20248;-71
2021/04/17 11:51:17;;;;;;;6.13;3.70;;;;;;;;;;5050414;28;20259;-72
2021/04/17 11:54:01;;;;;;;6.23;3.40;;;;;;;;;;5060692;28;20253;-70
2021/04/17 11:56:47;;;;;;;6.03;3.40;;;;;;;;;;5069323;28;20293;-74
2021/04/17 11:59:31;;;;;;;6.37;3.33;;;;;;;;;;5068861;28;20231;-69
2021/04/17 12:02:16;;;;;;;4.73;3.10;;;;;;;;;;5070015;28;20203;-68
2021/04/17 12:05:00;;;;;;;5.73;3.43;;;;;;;;;;5069683;28;20203;-69
2021/04/17 12:07:45;;;;;;;5.87;3.70;;;;;;;;;;5060488;28;20569;-68
2021/04/17 12:10:30;;;;;;;5.83;3.60;;;;;;;;;;5070284;28;20284;-68
2021/04/17 12:13:15;;;;;;;3.93;3.00;;;;;;;;;;5055528;28;20200;-68
2021/04/17 12:15:59;;;;;;;5.40;3.50;;;;;;;;;;5072859;28;20255;-68
2021/04/17 12:18:44;;;;;;;5.70;3.40;;;;;;;;;;5072921;28;20289;-70
2021/04/17 12:21:29;;;;;;;3.37;3.07;;;;;;;;;;5072800;28;20259;-67
2021/04/17 12:24:13;;;;;;;5.30;3.50;;;;;;;;;;5072617;28;20208;-68
2021/04/17 12:26:58;;;;;;;7.10;4.10;;;;;;;;;;5072872;28;20224;-67
2021/04/17 12:29:43;;;;;;;4.77;3.50;;;;;;;;;;5072410;28;20254;-68
2021/04/17 12:32:28;;;;;;;5.90;3.70;;;;;;;;;;5072800;28;20220;-69
2021/04/17 12:35:15;;;;;;;5.53;3.30;;;;;;;;;;5072780;28;20296;-68
2021/04/17 12:37:59;;;;;;;5.30;3.30;;;;;;;;;;5072010;28;20224;-68
2021/04/17 12:40:44;;;;;;;7.03;3.67;;;;;;;;;;5052877;28;20205;-68
2021/04/17 12:43:28;;;;;;;6.17;3.57;;;;;;;;;;5064448;28;20571;-68
2021/04/17 12:46:14;;;;;;;5.53;3.70;;;;;;;;;;5061100;28;20230;-68
2021/04/17 12:48:58;;;;;;;7.67;3.40;;;;;;;;;;5072728;28;20250;-67
2021/04/17 12:51:42;;;;;;;6.17;3.23;;;;;;;;;;5071170;28;20849;-69
2021/04/17 12:54:27;;;;;;;6.23;3.93;;;;;;;;;;5059615;28;20479;-70
2021/04/17 12:57:11;;;;;;;5.80;3.50;;;;;;;;;;5052130;28;20757;-69
2021/04/17 12:59:56;;;;;;;4.70;3.30;;;;;;;;;;5057819;28;20299;-73
2021/04/17 13:02:42;;;;;;;7.33;4.00;;;;;;;;;;5052501;28;20201;-72
2021/04/17 13:05:27;;;;;;;7.43;3.50;;;;;;;;;;5053512;28;20302;-71
2021/04/17 13:08:11;;;;;;;6.60;3.87;;;;;;;;;;5056668;28;20231;-72
2021/04/17 13:10:56;;;;;;;3.90;3.33;;;;;;;;;;5053590;28;20227;-72
2021/04/17 13:13:40;;;;;;;5.43;3.50;;;;;;;;;;5057778;28;20468;-71
2021/04/17 13:16:25;;;;;;;5.47;3.30;;;;;;;;;;5056569;28;20255;-72
2021/04/17 13:19:10;;;;;;;6.03;3.00;;;;;;;;;;5051831;28;20224;-71
2021/04/17 13:21:55;;;;;;;5.30;3.53;;;;;;;;;;5059687;28;20259;-70
2021/04/17 13:24:40;;;;;;;5.63;3.42;;;;;;;;;;5066923;28;20384;-71
2021/04/17 13:27:25;;;;;;;6.67;3.87;;;;;;;;;;5066921;28;20240;-71
2021/04/17 13:30:10;;;;;;;4.93;3.80;;;;;;;;;;5054261;28;20215;-70
2021/04/17 13:32:54;;;;;;;5.80;3.77;;;;;;;;;;5056325;28;20219;-70
2021/04/17 13:35:39;;;;;;;7.67;3.80;;;;;;;;;;5066681;28;20718;-71
2021/04/17 13:38:24;;;;;;;7.37;3.80;;;;;;;;;;5058484;28;21056;-71
2021/04/17 13:41:08;;;;;;;5.20;4.20;;;;;;;;;;5060403;28;20427;-71
2021/04/17 13:43:53;;;;;;;5.73;3.37;;;;;;;;;;5071549;28;20682;-71
2021/04/17 13:46:38;;;;;;;5.37;3.60;;;;;;;;;;5071281;28;20326;-70
2021/04/17 13:49:23;;;;;;;5.43;3.90;;;;;;;;;;5071939;28;20242;-70
2021/04/17 13:52:08;;;;;;;6.50;3.77;;;;;;;;;;5071809;28;20206;-70
2021/04/17 13:54:53;;;;;;;8.27;4.00;;;;;;;;;;5071470;28;20196;-71
2021/04/17 13:57:38;;;;;;;4.73;3.30;;;;;;;;;;5071200;28;20308;-70
2021/04/17 14:00:23;;;;;;;8.13;4.77;;;;;;;;;;5069420;28;20204;-70
2021/04/17 14:03:07;;;;;;;4.80;3.40;;;;;;;;;;5058936;28;20204;-71
2021/04/17 14:05:52;;;;;;;7.10;3.90;;;;;;;;;;5066688;28;20215;-71
2021/04/17 14:08:37;;;;;;;7.63;3.97;;;;;;;;;;5059298;28;20208;-71
2021/04/17 14:11:22;;;;;;;5.87;3.43;;;;;;;;;;5068290;28;20226;-70
2021/04/17 14:14:07;;;;;;;4.80;3.47;;;;;;;;;;5070926;28;20619;-70
2021/04/17 14:16:52;;;;;;;7.03;4.20;;;;;;;;;;5068132;28;20260;-70
2021/04/17 14:19:36;;;;;;;5.87;3.67;;;;;;;;;;5060356;28;20354;-70
2021/04/17 14:22:21;;;;;;;4.80;3.47;;;;;;;;;;5070952;28;20211;-69
2021/04/17 14:25:07;;;;;;;5.37;3.13;;;;;;;;;;5070656;28;20286;-70
2021/04/17 14:27:52;;;;;;;7.28;4.22;;;;;;;;;;5069276;28;20400;-73
2021/04/17 14:30:36;;;;;;;6.87;3.83;;;;;;;;;;5060055;28;20211;-72
2021/04/17 14:33:21;;;;;;;6.70;3.83;;;;;;;;;;5058676;28;20205;-73
2021/04/17 14:36:06;;;;;;;5.83;4.50;;;;;;;;;;5070280;28;20789;-73
2021/04/17 14:38:52;;;;;;;8.80;3.87;;;;;;;;;;5070466;28;20289;-73
2021/04/17 14:41:38;;;;;;;6.27;3.60;;;;;;;;;;5068881;28;20266;-74
2021/04/17 14:44:22;;;;;;;6.17;3.80;;;;;;;;;;5064757;28;20201;-74
2021/04/17 14:47:07;;;;;;;5.67;3.83;;;;;;;;;;5070566;28;20777;-71
2021/04/17 14:49:55;;;;;;;5.90;4.13;;;;;;;;;;5057083;28;20219;-74
2021/04/17 14:52:40;;;;;;;7.10;4.70;;;;;;;;;;5071746;28;20231;-74
2021/04/17 14:55:24;;;;;;;6.63;4.00;;;;;;;;;;5070999;28;20203;-74
2021/04/17 14:58:10;;;;;;;6.07;3.70;;;;;;;;;;5069989;28;20358;-73
2021/04/17 15:00:54;;;;;;;8.30;3.73;;;;;;;;;;5070396;28;20204;-72
2021/04/17 15:03:39;;;;;;;3.73;3.30;;;;;;;;;;5067920;28;20247;-74
2021/04/17 15:06:23;;;;;;;6.50;4.10;;;;;;;;;;5070100;28;20304;-74
2021/04/17 15:09:08;;;;;;;5.50;3.47;;;;;;;;;;5067433;28;20635;-72
2021/04/17 15:11:53;;;;;;;5.80;3.73;;;;;;;;;;5056671;28;20253;-73
2021/04/17 15:14:38;;;;;;;8.18;3.92;;;;;;;;;;5070014;28;20443;-73
2021/04/17 15:17:24;;;;;;;5.67;3.83;;;;;;;;;;5069948;28;20767;-70
2021/04/17 15:20:09;;;;;;;6.63;3.90;;;;;;;;;;5070130;28;20230;-69
2021/04/17 15:22:53;;;;;;;7.00;4.30;;;;;;;;;;5070308;28;20211;-69
2021/04/17 15:25:38;;;;;;;7.53;3.87;;;;;;;;;;5054208;28;20199;-69
2021/04/17 15:28:23;;;;;;;7.57;4.23;;;;;;;;;;5070149;28;20249;-68
2021/04/17 15:31:09;;;;;;;9.00;4.63;;;;;;;;;;5070388;28;20256;-69
2021/04/17 15:33:54;;;;;;;7.83;3.83;;;;;;;;;;5056144;28;20242;-69
2021/04/17 15:36:39;;;;;;;6.10;4.80;;;;;;;;;;5069461;28;20281;-68
2021/04/17 15:39:23;;;;;;;5.90;3.80;;;;;;;;;;5069833;28;20263;-69
2021/04/17 15:42:10;;;;;;;5.30;3.83;;;;;;;;;;5070409;28;20207;-71
2021/04/17 15:44:55;;;;;;;4.97;3.43;;;;;;;;;;5070529;28;20211;-71
2021/04/17 15:47:40;;;;;;;7.00;3.87;;;;;;;;;;5053450;28;20246;-71
2021/04/17 15:50:28;;;;;;;6.03;3.37;;;;;;;;;;5054087;28;20212;-72
2021/04/17 15:53:12;;;;;;;4.63;3.43;;;;;;;;;;5055263;28;20695;-71
2021/04/17 15:55:57;;;;;;;6.70;4.00;;;;;;;;;;5068555;28;20420;-71
2021/04/17 16:14:27;;;;;;;5.60;3.43;;;;;;;;;;5058462;28;20246;-72
2021/04/17 16:17:12;;;;;;;8.80;3.40;;;;;;;;;;5054906;28;20274;-74
2021/04/17 16:19:57;;;;;;;4.23;3.47;;;;;;;;;;5064763;28;20261;-74
2021/04/17 16:22:42;;;;;;;5.87;3.37;;;;;;;;;;5069988;28;20678;-73
2021/04/17 16:25:26;;;;;;;5.80;3.40;;;;;;;;;;5074258;28;20311;-74
2021/04/17 16:28:11;;;;;;;5.47;3.67;;;;;;;;;;5070691;28;20431;-74
2021/04/17 16:30:56;;;;;;;4.20;3.40;;;;;;;;;;5071430;28;20562;-75
2021/04/17 16:33:41;;;;;;;8.23;3.70;;;;;;;;;;5054144;28;20217;-72
2021/04/17 16:36:26;;;;;;;7.50;3.30;;;;;;;;;;5070065;28;20226;-72
2021/04/17 16:39:11;;;;;;;5.80;3.70;;;;;;;;;;5053311;28;20759;-72
2021/04/17 16:41:55;;;;;;;5.18;3.70;;;;;;;;;;5071046;28;20419;-73
2021/04/17 16:44:40;;;;;;;6.47;4.23;;;;;;;;;;5059237;28;20265;-73
2021/04/17 16:47:25;;;;;;;6.90;3.13;;;;;;;;;;5052448;28;20232;-73